UTA195 USSS-USMU
Flight info
| Callsign | UTA195 |
|---|---|
| Flight time | N/A |
| Altitude | 35000 |
| Route | DOSUM L992 NAMOL T376 UTORA A925 HMN R124 LARTU W77 REMKI |
| Aircraft | B738/M-SDE2E3FGHIRWXY/LB1 |
Departure
| Time | 2026-05-07 17:30 |
|---|---|
| Airport | Koltsovo Airport (USSS) |
Arrival
| Time | N/A |
|---|---|
| Airport | Novy Urengoy Airport (USMU) |
| Time | Latitude | Longitude | Altitude | Speed | Heading |
|---|---|---|---|---|---|
| 2026-05-07 17:05 | 56.74932 | 60.80134 | 776 ft | 0 kts | 360° |
| 2026-05-07 17:20 | 56.74918 | 60.80135 | 775 ft | 4 kts | 354° |
| 2026-05-07 17:20 | 56.74892 | 60.80145 | 775 ft | 4 kts | 337° |
| 2026-05-07 17:20 | 56.74870 | 60.80170 | 775 ft | 4 kts | 315° |
| 2026-05-07 17:20 | 56.74855 | 60.80208 | 775 ft | 4 kts | 283° |
| 2026-05-07 17:21 | 56.74854 | 60.80227 | 775 ft | 1 kts | 270° |
| 2026-05-07 17:24 | 56.74854 | 60.80224 | 775 ft | 1 kts | 270° |
| 2026-05-07 17:24 | 56.74854 | 60.80195 | 775 ft | 3 kts | 270° |
| 2026-05-07 17:25 | 56.74854 | 60.80163 | 775 ft | 2 kts | 270° |
| 2026-05-07 17:25 | 56.74854 | 60.80120 | 775 ft | 5 kts | 270° |
| 2026-05-07 17:25 | 56.74854 | 60.80026 | 774 ft | 11 kts | 270° |
| 2026-05-07 17:25 | 56.74854 | 60.79848 | 774 ft | 17 kts | 270° |
| 2026-05-07 17:26 | 56.74857 | 60.79609 | 774 ft | 20 kts | 271° |
| 2026-05-07 17:26 | 56.74857 | 60.79337 | 774 ft | 23 kts | 270° |
| 2026-05-07 17:26 | 56.74857 | 60.79042 | 774 ft | 24 kts | 270° |
| 2026-05-07 17:26 | 56.74855 | 60.78718 | 774 ft | 27 kts | 270° |
| 2026-05-07 17:27 | 56.74855 | 60.78372 | 774 ft | 27 kts | 270° |
| 2026-05-07 17:27 | 56.74825 | 60.78153 | 774 ft | 16 kts | 199° |
| 2026-05-07 17:27 | 56.74715 | 60.78148 | 774 ft | 16 kts | 180° |
| 2026-05-07 17:27 | 56.74609 | 60.78148 | 774 ft | 15 kts | 180° |
| 2026-05-07 17:28 | 56.74503 | 60.78147 | 774 ft | 16 kts | 180° |
| 2026-05-07 17:28 | 56.74379 | 60.78092 | 774 ft | 21 kts | 205° |
| 2026-05-07 17:28 | 56.74252 | 60.77996 | 774 ft | 15 kts | 179° |
| 2026-05-07 17:28 | 56.74226 | 60.78073 | 774 ft | 0 kts | 95° |
| 2026-05-07 17:29 | 56.74225 | 60.78107 | 774 ft | 13 kts | 94° |
| 2026-05-07 17:30 | 56.74200 | 60.78723 | 774 ft | 84 kts | 94° |
| 2026-05-07 17:30 | 56.74142 | 60.80174 | 774 ft | 143 kts | 94° |
| 2026-05-07 17:30 | 56.74046 | 60.82235 | 1023 ft | 171 kts | 93° |
| 2026-05-07 17:30 | 56.74001 | 60.84434 | 1766 ft | 178 kts | 93° |
| 2026-05-07 17:31 | 56.73991 | 60.86711 | 2501 ft | 184 kts | 92° |
| 2026-05-07 17:31 | 56.73973 | 60.89074 | 3187 ft | 190 kts | 93° |
| 2026-05-07 17:31 | 56.73932 | 60.91602 | 3585 ft | 209 kts | 93° |
| 2026-05-07 17:31 | 56.73886 | 60.94322 | 3994 ft | 219 kts | 92° |
| 2026-05-07 17:32 | 56.73912 | 60.97106 | 4539 ft | 222 kts | 82° |
| 2026-05-07 17:32 | 56.74350 | 60.99893 | 4878 ft | 237 kts | 63° |
| 2026-05-07 17:32 | 56.75406 | 61.02337 | 5145 ft | 256 kts | 39° |
| 2026-05-07 17:32 | 56.76357 | 61.03700 | 5398 ft | 266 kts | 31° |
| 2026-05-07 17:33 | 56.78084 | 61.05189 | 5719 ft | 283 kts | 18° |
| 2026-05-07 17:33 | 56.79952 | 61.06349 | 6453 ft | 283 kts | 16° |
| 2026-05-07 17:33 | 56.81827 | 61.07477 | 7183 ft | 285 kts | 16° |
| 2026-05-07 17:33 | 56.84327 | 61.09034 | 8089 ft | 289 kts | 17° |
| 2026-05-07 17:34 | 56.85611 | 61.09860 | 8538 ft | 291 kts | 17° |
| 2026-05-07 17:34 | 56.88157 | 61.11539 | 9434 ft | 296 kts | 18° |
| 2026-05-07 17:34 | 56.89465 | 61.12418 | 9891 ft | 298 kts | 18° |
| 2026-05-07 17:34 | 56.91440 | 61.13760 | 10303 ft | 311 kts | 18° |
| 2026-05-07 17:35 | 56.93543 | 61.15197 | 10462 ft | 332 kts | 18° |
| 2026-05-07 17:35 | 56.95754 | 61.16722 | 10786 ft | 345 kts | 18° |
| 2026-05-07 17:35 | 56.98015 | 61.18293 | 10938 ft | 349 kts | 18° |
| 2026-05-07 17:35 | 57.00258 | 61.19858 | 10934 ft | 348 kts | 18° |
| 2026-05-07 17:36 | 57.02523 | 61.21443 | 10949 ft | 348 kts | 18° |
| 2026-05-07 17:36 | 57.04790 | 61.23031 | 10957 ft | 349 kts | 18° |
| 2026-05-07 17:36 | 57.07080 | 61.24637 | 11287 ft | 354 kts | 18° |
| 2026-05-07 17:36 | 57.09379 | 61.26250 | 12029 ft | 354 kts | 18° |
| 2026-05-07 17:37 | 57.11684 | 61.27869 | 12771 ft | 355 kts | 19° |
| 2026-05-07 17:37 | 57.13998 | 61.29496 | 13482 ft | 358 kts | 19° |
| 2026-05-07 17:37 | 57.16335 | 61.31142 | 14123 ft | 362 kts | 19° |
| 2026-05-07 17:37 | 57.18696 | 61.32808 | 14758 ft | 364 kts | 19° |
| 2026-05-07 17:38 | 57.21073 | 61.34488 | 15413 ft | 367 kts | 19° |
| 2026-05-07 17:38 | 57.23458 | 61.36174 | 16064 ft | 370 kts | 19° |
| 2026-05-07 17:38 | 57.25873 | 61.37884 | 16690 ft | 373 kts | 18° |
| 2026-05-07 17:38 | 57.28312 | 61.39615 | 17327 ft | 377 kts | 19° |
| 2026-05-07 17:39 | 57.30702 | 61.41689 | 17936 ft | 383 kts | 27° |
| 2026-05-07 17:39 | 57.32996 | 61.44246 | 18516 ft | 387 kts | 30° |
| 2026-05-07 17:39 | 57.35266 | 61.46959 | 19071 ft | 390 kts | 30° |
| 2026-05-07 17:39 | 57.37553 | 61.49690 | 19618 ft | 392 kts | 30° |
| 2026-05-07 17:40 | 57.39869 | 61.52406 | 20152 ft | 395 kts | 29° |
| 2026-05-07 17:40 | 57.42209 | 61.55102 | 20691 ft | 398 kts | 29° |
| 2026-05-07 17:40 | 57.44580 | 61.57804 | 21203 ft | 401 kts | 28° |
| 2026-05-07 17:40 | 57.46938 | 61.60487 | 21715 ft | 404 kts | 28° |
| 2026-05-07 17:41 | 57.49373 | 61.63261 | 22235 ft | 407 kts | 28° |
| 2026-05-07 17:41 | 57.51763 | 61.65987 | 22722 ft | 410 kts | 28° |
| 2026-05-07 17:41 | 57.54201 | 61.68773 | 23221 ft | 412 kts | 28° |
| 2026-05-07 17:41 | 57.56653 | 61.71578 | 23676 ft | 415 kts | 28° |
| 2026-05-07 17:42 | 57.59124 | 61.74410 | 24075 ft | 418 kts | 28° |
| 2026-05-07 17:42 | 57.61611 | 61.77264 | 24465 ft | 421 kts | 28° |
| 2026-05-07 17:42 | 57.64058 | 61.80307 | 24863 ft | 426 kts | 35° |
| 2026-05-07 17:42 | 57.66277 | 61.84023 | 25257 ft | 431 kts | 41° |
| 2026-05-07 17:43 | 57.68430 | 61.87960 | 25648 ft | 433 kts | 42° |
| 2026-05-07 17:43 | 57.70569 | 61.91951 | 26024 ft | 436 kts | 42° |
| 2026-05-07 17:43 | 57.72723 | 61.95982 | 26382 ft | 439 kts | 42° |
| 2026-05-07 17:43 | 57.74896 | 62.00033 | 26742 ft | 442 kts | 42° |
| 2026-05-07 17:44 | 57.77084 | 62.04095 | 27095 ft | 444 kts | 41° |
| 2026-05-07 17:44 | 57.79291 | 62.08177 | 27442 ft | 447 kts | 41° |
| 2026-05-07 17:44 | 57.81516 | 62.12286 | 27779 ft | 449 kts | 41° |
| 2026-05-07 17:44 | 57.83725 | 62.16364 | 28093 ft | 452 kts | 41° |
| 2026-05-07 17:45 | 57.85972 | 62.20517 | 28429 ft | 454 kts | 41° |
| 2026-05-07 17:45 | 57.88231 | 62.24701 | 28746 ft | 457 kts | 41° |
| 2026-05-07 17:45 | 57.90506 | 62.28920 | 29045 ft | 460 kts | 41° |
| 2026-05-07 17:45 | 57.92785 | 62.33157 | 29346 ft | 462 kts | 41° |
| 2026-05-07 17:46 | 57.95075 | 62.37423 | 29632 ft | 465 kts | 41° |
| 2026-05-07 17:46 | 57.97381 | 62.41726 | 29919 ft | 467 kts | 41° |
| 2026-05-07 17:46 | 57.99697 | 62.46057 | 30175 ft | 470 kts | 41° |
| 2026-05-07 17:46 | 58.02023 | 62.50415 | 30395 ft | 472 kts | 41° |
| 2026-05-07 17:47 | 58.04357 | 62.54797 | 30648 ft | 474 kts | 41° |
| 2026-05-07 17:47 | 58.06687 | 62.59183 | 30981 ft | 473 kts | 41° |
| 2026-05-07 17:47 | 58.09011 | 62.63564 | 31341 ft | 472 kts | 41° |
| 2026-05-07 17:47 | 58.11331 | 62.67949 | 31662 ft | 472 kts | 41° |
| 2026-05-07 17:48 | 58.13656 | 62.72349 | 31952 ft | 472 kts | 41° |
| 2026-05-07 17:48 | 58.15973 | 62.76740 | 32249 ft | 472 kts | 41° |
| 2026-05-07 17:48 | 58.18295 | 62.81150 | 32554 ft | 471 kts | 41° |
| 2026-05-07 17:48 | 58.20607 | 62.85551 | 32846 ft | 471 kts | 41° |
| 2026-05-07 17:49 | 58.22891 | 62.89906 | 33125 ft | 471 kts | 41° |
| 2026-05-07 17:49 | 58.25203 | 62.94324 | 33411 ft | 471 kts | 41° |
| 2026-05-07 17:49 | 58.27520 | 62.98760 | 33674 ft | 472 kts | 41° |
| 2026-05-07 17:49 | 58.29827 | 63.03185 | 33942 ft | 472 kts | 41° |
| 2026-05-07 17:50 | 58.32138 | 63.07627 | 34181 ft | 471 kts | 41° |
| 2026-05-07 17:50 | 58.34451 | 63.12080 | 34374 ft | 472 kts | 41° |
| 2026-05-07 17:50 | 58.36761 | 63.16539 | 34569 ft | 473 kts | 41° |
| 2026-05-07 17:50 | 58.39070 | 63.21003 | 34787 ft | 473 kts | 41° |
| 2026-05-07 17:51 | 58.41377 | 63.25472 | 34999 ft | 473 kts | 41° |
| 2026-05-07 17:51 | 58.43694 | 63.29969 | 34991 ft | 477 kts | 41° |
| 2026-05-07 17:51 | 58.48302 | 63.38941 | 34997 ft | 475 kts | 41° |
| 2026-05-07 17:52 | 58.52902 | 63.47938 | 35010 ft | 472 kts | 41° |
| 2026-05-07 17:52 | 58.57477 | 63.56917 | 35008 ft | 470 kts | 41° |
| 2026-05-07 17:53 | 58.62036 | 63.65899 | 35013 ft | 469 kts | 41° |
| 2026-05-07 17:53 | 58.66583 | 63.74893 | 35013 ft | 469 kts | 41° |
| 2026-05-07 17:54 | 58.71131 | 63.83921 | 35018 ft | 471 kts | 41° |
| 2026-05-07 17:54 | 58.75695 | 63.93012 | 35024 ft | 473 kts | 41° |
| 2026-05-07 17:55 | 58.80281 | 64.02177 | 35020 ft | 476 kts | 41° |
| 2026-05-07 17:55 | 58.84881 | 64.11409 | 35024 ft | 478 kts | 41° |
| 2026-05-07 17:56 | 58.89445 | 64.20607 | 35021 ft | 480 kts | 41° |
| 2026-05-07 17:56 | 58.94042 | 64.29911 | 35024 ft | 482 kts | 41° |
| 2026-05-07 17:57 | 58.97922 | 64.37794 | 35019 ft | 483 kts | 41° |
| 2026-05-07 17:57 | 59.03242 | 64.48649 | 35017 ft | 483 kts | 41° |
| 2026-05-07 17:58 | 59.07864 | 64.58122 | 35022 ft | 482 kts | 41° |
| 2026-05-07 17:58 | 59.12474 | 64.67608 | 35019 ft | 482 kts | 41° |
| 2026-05-07 17:59 | 59.17077 | 64.77119 | 35020 ft | 481 kts | 41° |
| 2026-05-07 17:59 | 59.21657 | 64.86619 | 35031 ft | 487 kts | 41° |
| 2026-05-07 18:00 | 59.26340 | 64.96370 | 35035 ft | 495 kts | 41° |
| 2026-05-07 18:00 | 59.31082 | 65.06297 | 35028 ft | 502 kts | 42° |
| 2026-05-07 18:01 | 59.35856 | 65.16340 | 35025 ft | 505 kts | 42° |
| 2026-05-07 18:01 | 59.40645 | 65.26456 | 35026 ft | 506 kts | 42° |
| 2026-05-07 18:02 | 59.47825 | 65.41703 | 35022 ft | 506 kts | 42° |
| 2026-05-07 18:03 | 59.52560 | 65.51827 | 35023 ft | 506 kts | 42° |
| 2026-05-07 18:03 | 59.57321 | 65.62049 | 35024 ft | 506 kts | 42° |
| 2026-05-07 18:04 | 59.62075 | 65.72303 | 35031 ft | 506 kts | 42° |
| 2026-05-07 18:04 | 59.66820 | 65.82582 | 35035 ft | 506 kts | 42° |
| 2026-05-07 18:05 | 59.71559 | 65.92891 | 35032 ft | 506 kts | 42° |
| 2026-05-07 18:05 | 59.76224 | 66.03343 | 35031 ft | 507 kts | 44° |
| 2026-05-07 18:06 | 59.80838 | 66.13936 | 35026 ft | 508 kts | 44° |
| 2026-05-07 18:06 | 59.85461 | 66.24567 | 35033 ft | 508 kts | 44° |
| 2026-05-07 18:07 | 59.90084 | 66.35205 | 35028 ft | 508 kts | 44° |
| 2026-05-07 18:07 | 59.94673 | 66.45803 | 35030 ft | 508 kts | 44° |
| 2026-05-07 18:08 | 59.99290 | 66.56519 | 35032 ft | 508 kts | 44° |
| 2026-05-07 18:08 | 60.03839 | 66.67128 | 35035 ft | 509 kts | 44° |
| 2026-05-07 18:09 | 60.08446 | 66.77943 | 35029 ft | 510 kts | 44° |
| 2026-05-07 18:09 | 60.13029 | 66.88762 | 35034 ft | 510 kts | 44° |
| 2026-05-07 18:10 | 60.17619 | 66.99644 | 35035 ft | 510 kts | 44° |
| 2026-05-07 18:10 | 60.22203 | 67.10563 | 35037 ft | 511 kts | 44° |
| 2026-05-07 18:11 | 60.26759 | 67.21468 | 35035 ft | 512 kts | 44° |
| 2026-05-07 18:11 | 60.31334 | 67.32468 | 35034 ft | 512 kts | 44° |
| 2026-05-07 18:12 | 60.35909 | 67.43522 | 35031 ft | 513 kts | 44° |
| 2026-05-07 18:12 | 60.40470 | 67.54596 | 35029 ft | 513 kts | 44° |
| 2026-05-07 18:13 | 60.45037 | 67.65737 | 35031 ft | 514 kts | 44° |
| 2026-05-07 18:13 | 60.49594 | 67.76909 | 35032 ft | 514 kts | 44° |
| 2026-05-07 18:14 | 60.54149 | 67.88128 | 35032 ft | 515 kts | 45° |